Latest Weather Observations for Loxton

IDS60801

Issued at 6:31 pm CST Tuesday 30 August 2016 (issued every 30 minutes, with the page automatically refreshed every 10 minutes)

About weather observations | Map of weather stations | Latest weather observations for SA | Other Formats
Station Details ID: 024024 Name: LOXTON RESEARCH CENTRE Lat: -34.44 Lon: 140.60 Height: 30.1 m
Data from the previous 72 hours. | See also: Recent months at Loxton
Date/Time
CST
Temp
°C
App
Temp
°C
Dew
Point
°C
Rel
Hum
%
Delta-T
°C
Wind Press
QNH
hPa
Press
MSL
hPa
Rain since
9am
mm
Dir  Spd
km/h
Gust
km/h
Spd
kts
Gust
kts
30/06:30pm 15.8 14.3 13.1 84 1.5 N 13 17 7 9 1012.3 1012.4 0.2
30/06:00pm 16.1 14.3 13.2 83 1.6 N 15 22 8 12 1012.0 1012.1 0.2
30/05:30pm 16.9 14.9 12.8 77 2.3 NNE 15 22 8 12 1011.9 1012.0 0.2
30/05:00pm 17.3 15.2 12.4 73 2.7 N 15 20 8 11 1011.8 1011.9 0.2
30/04:30pm 17.9 15.0 12.3 70 3.1 N 19 26 10 14 1011.7 1011.8 0.2
30/04:00pm 18.2 14.8 11.4 64 3.7 N 20 30 11 16 1011.5 1011.6 0.2
30/03:30pm 18.5 14.3 11.2 62 4.0 N 24 39 13 21 1011.4 1011.5 0.2
30/03:00pm 18.5 14.3 11.2 62 4.0 NNE 24 35 13 19 1011.6 1011.7 0.2
30/02:30pm 18.8 15.2 11.7 63 3.9 NNE 22 30 12 16 1011.7 1011.8 0.2
30/02:00pm 19.0 15.3 11.5 61 4.1 N 22 32 12 17 1011.9 1012.0 0.2
30/01:30pm 18.5 14.8 11.6 64 3.8 N 22 32 12 17 1012.0 1012.1 0.2
30/01:00pm 18.7 15.1 12.0 65 3.7 NNE 22 30 12 16 1012.2 1012.3 0.2
30/12:30pm 18.8 15.3 12.3 66 3.6 N 22 33 12 18 1012.9 1012.9 0.2
30/12:00pm 17.9 13.9 11.7 67 3.4 NNE 24 33 13 18 1013.2 1013.2 0.2
30/11:30am 16.8 14.1 11.7 72 2.8 NNE 17 26 9 14 1013.6 1013.6 0.0
30/11:00am 15.9 12.4 11.0 72 2.6 NNE 20 28 11 15 1014.1 1014.1 0.0
30/10:30am 15.5 12.4 10.2 70 2.8 NNE 17 24 9 13 1014.0 1014.0 0.0
30/10:00am 15.6 12.9 10.5 71 2.7 NNE 15 22 8 12 1014.2 1014.2 0.0
30/09:30am 15.1 13.3 10.8 75 2.3 NE 11 17 6 9 1014.2 1014.2 0.0
30/09:00am 14.5 12.7 10.7 78 2.0 NNE 11 15 6 8 1014.8 1014.8 3.4
30/08:30am 13.6 12.6 11.1 85 1.3 ENE 7 11 4 6 1014.4 1014.4 3.4
30/08:00am 12.7 13.0 11.0 89 0.9 CALM 0 0 0 0 1014.7 1014.7 3.4
30/07:30am 11.9 12.2 10.9 94 0.5 CALM 0 0 0 0 1013.7 1013.7 3.4
30/07:00am 11.4 11.6 10.6 95 0.4 CALM 0 4 0 2 1014.1 1014.1 3.4
30/06:30am 11.1 11.2 10.3 95 0.4 CALM 0 0 0 0 1014.2 1014.2 3.4
30/06:00am 11.2 11.4 10.4 95 0.4 CALM 0 0 0 0 1014.0 1014.0 3.4
30/05:30am 11.5 11.6 10.3 92 0.6 CALM 0 0 0 0 1013.7 1013.7 3.4
30/05:00am 11.8 11.9 10.2 90 0.8 CALM 0 0 0 0 1013.9 1013.9 3.4
30/04:30am 11.9 10.7 10.3 90 0.8 ENE 7 9 4 5 1014.1 1014.1 3.4
30/04:00am 12.0 9.6 10.2 89 0.9 E 13 17 7 9 1014.0 1014.0 3.4
30/03:30am 11.9 9.6 10.3 90 0.8 E 13 19 7 10 1014.0 1014.0 3.4
30/03:00am 11.9 8.9 10.5 91 0.7 E 17 22 9 12 1014.5 1014.5 3.4
30/02:30am 11.9 9.2 10.5 91 0.7 E 15 20 8 11 1015.4 1015.4 3.4
30/02:00am 11.8 9.5 10.6 92 0.6 E 13 17 7 9 1015.4 1015.4 3.4
30/01:30am 12.0 9.7 10.6 91 0.7 ENE 13 20 7 11 1016.1 1016.1 3.4
30/01:00am 12.0 9.4 10.6 91 0.7 ENE 15 20 8 11 1016.1 1016.1 3.2
30/12:30am 12.0 9.3 10.4 90 0.8 ENE 15 20 8 11 1016.5 1016.5 3.0
30/12:00am 12.2 9.9 10.3 88 1.0 NE 13 19 7 10 1017.1 1017.1 2.8
 
Date/Time
CST
Temp
°C
App
Temp
°C
Dew
Point
°C
Rel
Hum
%
Delta-T
°C
Wind Press
QNH
hPa
Press
MSL
hPa
Rain since
9am
mm
Dir  Spd
km/h
Gust
km/h
Spd
kts
Gust
kts
29/11:30pm 12.3 10.4 10.4 88 1.0 NNE 11 13 6 7 1017.8 1017.8 2.4
29/11:00pm 12.8 10.7 9.9 82 1.5 NNE 11 15 6 8 1017.9 1017.9 1.4
29/10:30pm 13.6 10.1 8.6 72 2.5 NNE 17 20 9 11 1017.7 1017.7 0.6
29/10:00pm 14.3 11.2 7.4 63 3.4 NE 13 19 7 10 1017.1 1017.1 0.2
29/09:30pm 14.5 11.9 7.6 63 3.4 NE 11 15 6 8 1017.3 1017.3 0.2
29/09:00pm 14.4 11.9 8.2 66 3.1 NE 11 15 6 8 1017.4 1017.4 0.2
29/08:30pm 14.9 12.3 7.9 63 3.5 NE 11 15 6 8 1017.3 1017.3 0.2
29/08:00pm 15.0 12.5 8.0 63 3.5 NE 11 15 6 8 1017.3 1017.3 0.2
29/07:30pm 15.2 12.3 8.2 63 3.5 NE 13 17 7 9 1017.6 1017.6 0.2
29/07:00pm 15.5 12.7 8.4 62 3.6 NNE 13 20 7 11 1017.5 1017.5 0.2
29/06:30pm 15.9 13.1 8.4 61 3.8 NNE 13 17 7 9 1017.3 1017.3 0.0
29/06:00pm 17.6 14.0 4.8 42 6.1 NNE 13 17 7 9 1016.6 1016.6 0.0
29/05:30pm 18.2 14.4 4.0 39 6.7 NE 13 15 7 8 1015.6 1015.6 0.0
29/05:00pm 18.9 15.0 3.6 36 7.2 NNE 13 20 7 11 1015.6 1015.6 0.0
29/04:30pm 19.6 14.8 2.6 32 7.9 NNE 17 20 9 11 1015.1 1015.1 0.0
29/04:00pm 20.1 14.7 1.4 28 8.5 NNE 19 30 10 16 1014.9 1014.9 0.0
29/03:30pm 19.8 14.5 1.6 29 8.3 NE 19 24 10 13 1015.3 1015.3 0.0
29/03:00pm 20.2 14.9 1.6 29 8.5 NE 19 26 10 14 1015.1 1015.1 0.0
29/02:30pm 20.0 14.4 0.9 28 8.6 NNE 20 28 11 15 1016.0 1016.0 0.0
29/02:00pm 19.8 13.3 0.1 26 8.7 N 24 37 13 20 1016.3 1016.3 0.0
29/01:30pm 20.4 13.4 -0.6 24 9.2 NNE 26 37 14 20 1016.2 1016.2 0.0
29/01:00pm 19.9 13.8 0.7 27 8.6 NNE 22 30 12 16 1016.7 1016.7 0.0
29/12:30pm 19.7 13.3 1.0 28 8.4 NE 24 33 13 18 1017.1 1017.1 0.0
29/12:00pm 18.5 13.0 2.0 33 7.5 NE 20 28 11 15 1017.5 1017.5 0.0
29/11:30am 17.8 13.4 2.7 36 6.9 NNE 15 24 8 13 1018.1 1018.1 0.0
29/11:00am 17.8 12.3 0.4 31 7.6 NNE 19 28 10 15 1018.4 1018.4 0.0
29/10:30am 17.7 11.1 -0.2 29 7.7 NNE 24 33 13 18 1018.3 1018.3 0.0
29/10:00am 16.8 11.3 0.4 33 7.1 NNE 19 28 10 15 1018.8 1018.8 0.0
29/09:30am 15.1 9.5 1.3 39 6.0 NE 20 28 11 15 1018.9 1018.9 0.0
29/09:00am 14.8 9.8 1.4 40 5.8 NE 17 24 9 13 1019.0 1019.0 0.0
29/08:30am 13.8 9.6 1.5 43 5.3 NE 13 17 7 9 1019.1 1019.1 0.0
29/08:00am 13.1 8.9 1.4 45 5.0 NE 13 19 7 10 1018.8 1018.8 0.0
29/07:30am 12.1 8.0 2.1 50 4.3 ENE 13 15 7 8 1018.2 1018.2 0.0
29/07:00am 11.8 7.6 1.7 50 4.3 ENE 13 17 7 9 1018.1 1018.1 0.0
29/06:30am 12.0 7.7 1.3 48 4.5 ENE 13 19 7 10 1018.3 1018.3 0.0
29/06:00am 11.5 7.7 1.9 51 4.1 ENE 11 15 6 8 1017.9 1017.9 0.0
29/05:30am 11.2 7.0 1.7 52 4.0 ENE 13 17 7 9 1017.8 1017.8 0.0
29/05:00am 10.4 7.1 2.7 59 3.3 ENE 9 13 5 7 1017.6 1017.6 0.0
29/04:30am 10.5 6.4 2.3 57 3.5 ENE 13 15 7 8 1017.4 1017.4 0.0
29/04:00am 10.3 6.5 2.0 56 3.5 E 11 15 6 8 1017.5 1017.5 0.0
29/03:30am 10.3 6.6 2.6 59 3.3 ENE 11 15 6 8 1017.7 1017.7 0.0
29/03:00am 10.7 7.4 2.2 55 3.6 ENE 9 13 5 7 1017.6 1017.6 0.0
29/02:30am 11.1 7.4 2.2 54 3.8 ENE 11 15 6 8 1017.8 1017.8 0.0
29/02:00am 10.7 7.4 2.5 57 3.5 E 9 13 5 7 1017.7 1017.7 0.0
29/01:30am 11.4 7.6 2.0 52 4.0 E 11 13 6 7 1017.9 1017.9 0.0
29/01:00am 12.4 8.1 0.7 44 4.9 ENE 13 17 7 9 1018.1 1018.1 0.0
29/12:30am 12.1 7.8 1.2 47 4.6 NE 13 17 7 9 1018.2 1018.2 0.0
29/12:00am 12.4 8.1 0.7 44 4.9 NE 13 15 7 8 1018.3 1018.3 0.0
 
Date/Time
CST
Temp
°C
App
Temp
°C
Dew
Point
°C
Rel
Hum
%
Delta-T
°C
Wind Press
QNH
hPa
Press
MSL
hPa
Rain since
9am
mm
Dir  Spd
km/h
Gust
km/h
Spd
kts
Gust
kts
28/11:30pm 12.7 8.7 0.8 44 5.0 NE 11 17 6 9 1018.3 1018.3 0.0
28/11:00pm 12.6 8.7 1.3 46 4.8 NE 11 13 6 7 1018.4 1018.4 0.0
28/10:30pm 12.6 8.7 1.3 46 4.8 ENE 11 15 6 8 1018.4 1018.4 0.0
28/10:00pm 12.3 8.3 0.8 45 4.8 NE 11 19 6 10 1018.6 1018.6 0.0
28/09:30pm 11.3 7.4 1.0 49 4.3 NE 11 15 6 8 1018.4 1018.4 0.0
28/09:00pm 9.0 6.0 2.0 61 2.9 ENE 7 11 4 6 1018.2 1018.2 0.0
28/08:30pm 8.9 5.5 1.6 60 3.0 ENE 9 11 5 6 1018.1 1018.1 0.0
28/08:00pm 8.7 7.3 3.6 70 2.2 CALM 0 0 0 0 1018.3 1018.3 0.0
28/07:30pm 9.9 6.9 1.8 57 3.4 ENE 7 9 4 5 1017.8 1017.8 0.0
28/07:00pm 10.1 7.5 3.2 62 3.0 ENE 6 7 3 4 1017.5 1017.5 0.0
28/06:30pm 11.5 9.0 3.6 58 3.5 ENE 6 7 3 4 1017.2 1017.2 0.0
28/06:00pm 15.5 12.7 2.9 42 5.7 ENE 7 9 4 5 1016.9 1016.9 0.0
28/05:30pm 17.8 13.6 -1.1 27 8.0 NE 11 17 6 9 1016.4 1016.4 0.0
28/05:00pm 19.2 13.0 -3.2 21 9.2 NNE 20 30 11 16 1016.5 1016.5 0.0
28/04:30pm 19.9 12.9 -3.9 20 9.7 NNE 24 35 13 19 1016.4 1016.4 0.0
28/04:00pm 20.8 13.3 -4.1 18 10.2 NNE 26 37 14 20 1016.2 1016.2 0.0
28/03:30pm 20.1 13.1 -3.9 19 9.8 NNE 24 35 13 19 1016.3 1016.3 0.0
28/03:00pm 20.6 13.9 -4.6 18 10.2 NNE 22 33 12 18 1016.7 1016.7 0.0
28/02:30pm 20.5 14.1 -4.8 18 10.2 N 20 32 11 17 1017.0 1017.0 0.0
28/02:00pm 21.9 15.9 -3.3 18 10.6 N 19 32 10 17 1017.2 1017.2 0.0
28/01:30pm 21.5 14.4 -4.3 17 10.6 NNE 24 32 13 17 1017.3 1017.3 0.0
28/01:00pm 21.7 15.7 -3.3 18 10.5 N 19 32 10 17 1017.7 1017.7 0.0
28/12:30pm 21.9 15.9 -3.3 18 10.6 N 19 26 10 14 1018.4 1018.4 0.0
28/12:00pm 21.6 15.5 -3.6 18 10.5 NNW 19 26 10 14 1018.8 1018.8 0.0
28/11:30am 20.6 14.3 -4.2 18 10.1 N 20 28 11 15 1019.3 1019.3 0.0
28/11:00am 20.3 14.1 -3.5 20 9.8 N 20 32 11 17 1019.7 1019.7 0.0
28/10:30am 19.2 12.9 -3.7 21 9.3 NNW 20 30 11 16 1019.8 1019.8 0.0
28/10:00am 18.8 12.9 -2.4 23 8.8 N 19 30 10 16 1020.0 1020.0 0.0
28/09:30am 16.8 11.3 -1.9 28 7.7 N 17 24 9 13 1020.5 1020.5 0.0
28/09:00am 15.0 10.4 -1.0 33 6.6 N 13 20 7 11 1020.6 1020.6 0.0
28/08:30am 13.2 8.8 0.2 41 5.4 NNE 13 19 7 10 1020.7 1020.7 0.0
28/08:00am 11.2 8.2 1.7 52 4.0 NE 7 17 4 9 1020.7 1020.7 0.0
28/07:58am 11.0 8.6 2.0 54 3.8 NE 4 11 2 6 1020.6 1020.6 0.0
28/07:30am 6.0 3.4 3.4 83 1.1 NE 6 9 3 5 1020.5 1020.5 0.0
28/07:00am 4.1 1.2 1.3 82 1.1 NE 6 7 3 4 1020.1 1020.1 0.0
28/06:30am 5.0 3.2 1.4 77 1.4 CALM 0 0 0 0 1019.9 1019.9 0.0
28/06:00am 7.0 3.5 1.5 68 2.2 NNE 9 13 5 7 1019.6 1019.6 0.0
28/05:30am 6.4 3.4 2.2 74 1.7 NNE 7 9 4 5 1019.6 1019.6 0.0
28/05:00am 5.2 3.3 3.0 86 0.9 NNE 2 11 1 6 1019.4 1019.4 0.0
28/04:30am 5.2 3.8 3.3 87 0.8 CALM 0 0 0 0 1019.4 1019.4 0.0
28/04:00am 5.4 4.0 3.7 89 0.7 CALM 0 0 0 0 1019.5 1019.5 0.0
28/03:30am 5.7 4.4 4.0 89 0.7 CALM 0 0 0 0 1019.4 1019.4 0.0
28/03:00am 5.4 4.1 4.0 91 0.6 CALM 0 0 0 0 1019.5 1019.5 0.0
28/02:30am 5.7 4.3 3.8 87 0.8 CALM 0 0 0 0 1019.8 1019.8 0.0
28/02:00am 5.5 4.1 3.6 87 0.8 CALM 0 0 0 0 1019.8 1019.8 0.0
28/01:30am 4.7 3.2 3.0 89 0.7 CALM 0 0 0 0 1019.9 1019.9 0.0
28/01:00am 4.2 2.6 2.5 89 0.7 CALM 0 0 0 0 1020.0 1020.0 0.0
28/12:30am 4.6 3.0 2.6 87 0.8 CALM 0 0 0 0 1020.0 1020.0 0.0
28/12:00am 5.3 3.8 3.1 86 0.9 CALM 0 0 0 0 1020.1 1020.1 0.0
 
Date/Time
CST
Temp
°C
App
Temp
°C
Dew
Point
°C
Rel
Hum
%
Delta-T
°C
Wind Press
QNH
hPa
Press
MSL
hPa
Rain since
9am
mm
Dir  Spd
km/h
Gust
km/h
Spd
kts
Gust
kts
27/11:30pm 5.2 3.7 3.0 86 0.9 CALM 0 0 0 0 1019.8 1019.8 0.0
27/11:00pm 5.6 4.2 3.7 87 0.8 CALM 0 0 0 0 1019.9 1019.9 0.0
27/10:30pm 5.8 4.4 3.7 86 0.9 CALM 0 0 0 0 1019.9 1019.9 0.0
27/10:00pm 6.4 5.0 3.8 83 1.1 CALM 0 0 0 0 1020.0 1020.0 0.0
27/09:30pm 6.9 5.6 4.3 83 1.1 CALM 0 0 0 0 1020.4 1020.4 0.0
27/09:00pm 7.9 6.7 4.5 79 1.5 CALM 0 0 0 0 1020.4 1020.4 0.0
27/08:30pm 8.9 7.7 4.8 75 1.8 CALM 0 0 0 0 1020.5 1020.5 0.0
27/08:00pm 10.0 9.0 5.4 73 2.1 CALM 0 0 0 0 1020.1 1020.1 0.0
27/07:30pm 9.3 8.1 4.8 73 2.0 CALM 0 0 0 0 1020.0 1020.0 0.0
27/07:00pm 10.1 9.0 5.2 71 2.2 CALM 0 0 0 0 1019.8 1019.8 0.0

Other Formats:

Comma delimited format used in spreadsheet applications
http://www.bom.gov.au/fwo/IDS60801/IDS60801.94682.axf

JavaScript Object Notation format (JSON) in row-major order
http://www.bom.gov.au/fwo/IDS60801/IDS60801.94682.json